createdAt,value
2022-10-10T00:02:39.604Z,5.50
2022-10-10T00:06:41.469Z,5.28
2022-10-10T00:10:43.132Z,6.18
2022-10-10T00:14:44.664Z,5.70
2022-10-10T00:18:46.106Z,7.25
2022-10-10T00:22:48.744Z,7.20
2022-10-10T00:26:50.518Z,6.00
2022-10-10T00:30:52.404Z,5.70
2022-10-10T00:34:53.997Z,7.13
2022-10-10T00:38:55.488Z,7.03
2022-10-10T00:42:56.936Z,6.90
2022-10-10T00:46:58.885Z,7.60
2022-10-10T00:51:06.586Z,6.57
2022-10-10T00:55:08.986Z,7.30
2022-10-10T00:59:12.683Z,6.97
2022-10-10T01:03:14.836Z,7.47
2022-10-10T01:07:20.561Z,7.25
2022-10-10T01:11:21.988Z,6.25
2022-10-10T01:15:39.740Z,6.63
2022-10-10T01:24:23.544Z,6.13
2022-10-10T01:28:34.498Z,6.43
2022-10-10T01:32:44.039Z,6.07
2022-10-10T01:36:57.372Z,6.18
2022-10-10T01:41:20.469Z,6.68
2022-10-10T01:45:22.398Z,5.47
2022-10-10T01:49:28.676Z,6.45
2022-10-10T01:53:39.311Z,5.70
2022-10-10T01:57:58.015Z,6.45
2022-10-10T02:02:22.822Z,7.22
2022-10-10T02:06:31.692Z,7.35
2022-10-10T02:10:35.832Z,7.15
2022-10-10T02:14:43.702Z,6.65
2022-10-10T02:22:48.028Z,6.38
2022-10-10T02:27:06.405Z,6.32
2022-10-10T02:31:12.315Z,6.35
2022-10-10T02:35:17.928Z,6.88
2022-10-10T02:39:22.351Z,5.75
2022-10-10T02:43:24.025Z,6.00
2022-10-10T02:47:25.527Z,5.72
2022-10-10T02:51:30.313Z,6.20
2022-10-10T02:55:32.059Z,5.88
2022-10-10T02:59:33.516Z,6.82
2022-10-10T03:03:35.468Z,5.70
2022-10-10T03:07:36.946Z,6.13
2022-10-10T03:11:38.442Z,6.35
2022-10-10T03:15:40.435Z,5.32
2022-10-10T03:19:41.949Z,5.63
2022-10-10T03:23:43.417Z,7.47
2022-10-10T03:27:44.984Z,6.40
2022-10-10T03:31:46.589Z,6.05
2022-10-10T03:35:49.019Z,6.07
2022-10-10T03:39:50.898Z,6.18
2022-10-10T03:43:52.438Z,6.38
2022-10-10T03:47:54.049Z,6.85
2022-10-10T03:51:55.788Z,6.43
2022-10-10T03:55:57.441Z,6.30
2022-10-10T03:59:59.169Z,6.57
2022-10-10T04:04:00.813Z,6.10
2022-10-10T04:08:02.908Z,6.07
2022-10-10T04:12:05.761Z,5.78
2022-10-10T04:16:07.212Z,6.05
2022-10-10T04:20:10.287Z,6.38
2022-10-10T04:24:12.430Z,6.93
2022-10-10T04:28:15.440Z,6.68
2022-10-10T04:32:17.020Z,6.25
2022-10-10T04:36:19.712Z,5.47
2022-10-10T04:40:26.169Z,5.97
2022-10-10T04:44:28.299Z,5.97
2022-10-10T04:48:29.895Z,5.75
2022-10-10T04:52:31.339Z,6.57
2022-10-10T04:56:32.907Z,9.25
2022-10-10T05:00:34.587Z,5.90
2022-10-10T05:04:36.204Z,5.63
2022-10-10T05:08:37.859Z,5.43
2022-10-10T05:12:40.951Z,5.68
2022-10-10T05:16:42.421Z,5.93
2022-10-10T05:20:47.716Z,6.07
2022-10-10T05:24:49.135Z,6.03
2022-10-10T05:28:50.910Z,6.15
2022-10-10T05:32:52.797Z,5.22
2022-10-10T05:36:56.894Z,5.50
2022-10-10T05:40:58.573Z,5.22
2022-10-10T05:45:00.009Z,5.88
2022-10-10T05:49:02.323Z,6.65
2022-10-10T05:53:04.272Z,6.47
2022-10-10T05:57:05.862Z,6.75
2022-10-10T06:01:08.266Z,5.10
2022-10-10T06:05:09.706Z,5.72
2022-10-10T06:09:11.178Z,6.10
2022-10-10T06:13:15.170Z,6.10
2022-10-10T06:17:16.567Z,6.50
2022-10-10T06:21:18.852Z,5.78
2022-10-10T06:25:38.828Z,5.70
2022-10-10T06:29:41.893Z,5.40
2022-10-10T06:33:45.957Z,5.43
2022-10-10T06:37:47.391Z,6.10
2022-10-10T06:41:49.518Z,5.60
2022-10-10T06:45:51.064Z,5.97
2022-10-10T06:49:52.519Z,5.78
2022-10-10T06:53:54.692Z,5.72
2022-10-10T06:57:56.650Z,6.28
2022-10-10T07:01:58.745Z,5.80
2022-10-10T07:06:03.580Z,6.40
2022-10-10T07:10:06.291Z,5.95
2022-10-10T07:14:07.923Z,4.65
2022-10-10T07:18:09.752Z,4.72
2022-10-10T07:22:11.210Z,4.80
2022-10-10T07:26:14.388Z,5.50
2022-10-10T07:30:16.462Z,4.75
2022-10-10T07:34:17.919Z,5.68
2022-10-10T07:38:19.469Z,4.78
2022-10-10T07:42:21.558Z,4.03
2022-10-10T07:46:23.634Z,4.10
2022-10-10T07:50:26.072Z,5.15
2022-10-10T07:54:28.156Z,4.70
2022-10-10T07:58:29.643Z,5.18
2022-10-10T08:02:31.405Z,5.40
2022-10-10T08:06:33.557Z,4.65
2022-10-10T08:10:35.251Z,3.95
2022-10-10T08:14:36.831Z,4.47
2022-10-10T08:18:38.249Z,4.00
2022-10-10T08:22:40.156Z,4.53
2022-10-10T08:26:41.827Z,3.95
2022-10-10T08:30:43.364Z,5.22
2022-10-10T08:34:44.829Z,3.85
2022-10-10T08:38:47.717Z,3.67
2022-10-10T08:42:53.250Z,4.13
2022-10-10T08:47:06.302Z,4.18
2022-10-10T08:51:13.623Z,4.28
2022-10-10T08:55:43.958Z,3.22
2022-10-10T08:59:45.546Z,3.60
2022-10-10T09:03:52.432Z,4.47
2022-10-10T09:08:17.115Z,3.53
2022-10-10T09:12:26.586Z,3.47
2022-10-10T09:16:41.782Z,3.22
2022-10-10T09:20:56.354Z,2.47
2022-10-10T09:25:03.544Z,2.38
2022-10-10T09:29:17.241Z,2.60
2022-10-10T09:33:36.509Z,3.10
2022-10-10T09:37:47.294Z,2.80
2022-10-10T09:42:00.964Z,2.00
2022-10-10T09:46:02.842Z,2.60
2022-10-10T09:54:12.181Z,1.93
2022-10-10T09:58:20.725Z,1.83
2022-10-10T10:02:25.194Z,1.83
2022-10-10T10:06:26.690Z,2.20
2022-10-10T10:10:30.195Z,2.13
2022-10-10T10:14:36.755Z,2.85
2022-10-10T10:18:45.873Z,2.00
2022-10-10T10:22:47.391Z,2.38
2022-10-10T10:26:49.155Z,2.03
2022-10-10T10:30:53.370Z,2.00
2022-10-10T10:35:36.462Z,1.75
2022-10-10T10:39:56.117Z,1.90
2022-10-10T10:44:17.483Z,1.60
2022-10-10T10:48:19.049Z,1.95
2022-10-10T10:53:12.344Z,2.35
2022-10-10T10:57:45.422Z,2.17
2022-10-10T11:02:09.306Z,2.22
2022-10-10T11:06:22.539Z,1.67
2022-10-10T11:10:39.045Z,2.92
2022-10-10T11:15:03.528Z,2.65
2022-10-10T11:19:10.842Z,2.58
2022-10-10T11:23:29.644Z,2.80
2022-10-10T11:28:02.992Z,2.33
2022-10-10T11:32:12.638Z,2.60
2022-10-10T11:36:19.947Z,2.15
2022-10-10T11:40:30.920Z,3.97
2022-10-10T11:44:42.514Z,2.33
2022-10-10T11:48:59.913Z,4.38
2022-10-10T11:53:07.573Z,8.95
2022-10-10T12:01:34.091Z,2.55
2022-10-10T12:05:38.892Z,2.70
2022-10-10T12:09:46.025Z,2.58
2022-10-10T12:13:52.751Z,2.78
2022-10-10T12:17:54.496Z,2.40
2022-10-10T12:22:05.524Z,3.55
2022-10-10T12:26:06.970Z,2.55
2022-10-10T12:30:08.533Z,2.55
2022-10-10T12:34:14.792Z,3.53
2022-10-10T12:38:25.899Z,3.38
2022-10-10T12:42:30.813Z,2.28
2022-10-10T12:46:33.371Z,2.47
2022-10-10T12:51:00.118Z,2.60
2022-10-10T12:55:26.411Z,3.13
2022-10-10T12:59:27.967Z,3.15
2022-10-10T13:03:32.284Z,3.08
2022-10-10T13:07:33.832Z,3.47
2022-10-10T13:11:57.496Z,2.67
2022-10-10T13:16:08.729Z,4.60
2022-10-10T13:20:28.275Z,3.42
2022-10-10T13:24:31.817Z,2.92
2022-10-10T13:28:33.891Z,2.38
2022-10-10T13:32:35.987Z,3.00
2022-10-10T13:36:37.990Z,2.78
2022-10-10T13:40:42.147Z,2.60
2022-10-10T13:44:52.021Z,3.60
2022-10-10T13:48:53.439Z,3.20
2022-10-10T13:53:29.451Z,5.40
2022-10-10T13:57:31.030Z,3.88
2022-10-10T14:01:32.570Z,3.38
2022-10-10T14:05:34.250Z,3.00
2022-10-10T14:09:44.339Z,2.38
2022-10-10T14:13:50.529Z,3.38
2022-10-10T14:17:52.103Z,2.88
2022-10-10T14:21:53.569Z,3.75
2022-10-10T14:25:55.462Z,2.45
2022-10-10T14:29:58.187Z,3.05
2022-10-10T14:33:59.902Z,3.47
2022-10-10T14:38:01.491Z,3.45
2022-10-10T14:42:03.646Z,2.97
2022-10-10T14:46:05.778Z,3.28
2022-10-10T14:50:15.873Z,3.65
2022-10-10T14:54:17.366Z,3.22
2022-10-10T14:58:20.817Z,3.95
2022-10-10T15:02:22.646Z,3.00
2022-10-10T15:06:24.043Z,3.28
2022-10-10T15:10:33.758Z,3.50
2022-10-10T15:14:36.011Z,4.70
2022-10-10T15:18:53.763Z,3.38
2022-10-10T15:23:00.711Z,3.40
2022-10-10T15:27:02.145Z,3.42
2022-10-10T15:31:04.491Z,3.17
2022-10-10T15:35:07.159Z,3.22
2022-10-10T15:39:08.752Z,4.30
2022-10-10T15:43:14.525Z,3.80
2022-10-10T15:47:17.413Z,3.55
2022-10-10T15:51:19.492Z,3.38
2022-10-10T15:55:21.333Z,3.53
2022-10-10T15:59:23.020Z,3.60
2022-10-10T16:03:24.722Z,2.63
2022-10-10T16:07:29.483Z,4.72
2022-10-10T16:11:33.033Z,3.80
2022-10-10T16:15:35.309Z,5.00
2022-10-10T16:19:36.991Z,3.33
2022-10-10T16:23:39.238Z,4.35
2022-10-10T16:27:40.840Z,4.07
2022-10-10T16:31:43.089Z,3.83
2022-10-10T16:35:45.955Z,4.63
2022-10-10T16:39:47.572Z,4.38
2022-10-10T16:43:49.213Z,3.75
2022-10-10T16:47:50.677Z,4.80
2022-10-10T16:51:52.272Z,4.70
2022-10-10T16:55:53.810Z,5.28
2022-10-10T16:59:55.223Z,3.65
2022-10-10T17:03:59.359Z,4.40
2022-10-10T17:08:01.038Z,5.07
2022-10-10T17:12:02.682Z,4.53
2022-10-10T17:16:59.707Z,5.35
2022-10-10T17:20:41.414Z,4.30
2022-10-10T17:24:42.923Z,3.67
2022-10-10T17:28:45.435Z,4.55
2022-10-10T17:32:47.221Z,3.85
2022-10-10T17:36:49.289Z,4.03
2022-10-10T17:40:57.099Z,4.85
2022-10-10T17:44:59.616Z,4.07
2022-10-10T17:49:01.309Z,4.72
2022-10-10T17:53:04.058Z,4.32
2022-10-10T17:57:06.038Z,5.65
2022-10-10T18:01:07.600Z,4.40
2022-10-10T18:05:10.063Z,5.60
2022-10-10T18:09:12.223Z,4.53
2022-10-10T18:13:14.407Z,6.97
2022-10-10T18:17:17.184Z,6.13
2022-10-10T18:21:21.230Z,8.43
2022-10-10T18:25:25.174Z,4.93
2022-10-10T18:29:26.858Z,4.82
2022-10-10T18:33:28.342Z,5.28
2022-10-10T18:37:30.219Z,6.07
2022-10-10T18:41:34.835Z,6.03
2022-10-10T18:45:36.570Z,8.57
2022-10-10T18:49:38.206Z,7.40
2022-10-10T18:53:45.415Z,5.68
2022-10-10T18:57:47.243Z,5.97
2022-10-10T19:01:50.711Z,7.65
2022-10-10T19:06:01.123Z,8.75
2022-10-10T19:10:04.552Z,8.95
2022-10-10T19:14:13.796Z,9.35
2022-10-10T19:18:16.305Z,7.25
2022-10-10T19:22:17.803Z,7.50
2022-10-10T19:26:19.831Z,8.45
2022-10-10T19:30:21.388Z,7.10
2022-10-10T19:34:23.835Z,6.60
2022-10-10T19:38:25.779Z,5.80
2022-10-10T19:42:27.316Z,5.95
2022-10-10T19:46:31.078Z,5.70
2022-10-10T19:50:33.444Z,6.32
2022-10-10T19:54:35.601Z,6.72
2022-10-10T19:58:37.799Z,6.22
2022-10-10T20:02:40.352Z,6.68
2022-10-10T20:06:43.649Z,6.47
2022-10-10T20:10:46.281Z,7.05
2022-10-10T20:14:47.867Z,6.55
2022-10-10T20:18:49.591Z,6.43
2022-10-10T20:22:51.145Z,5.60
2022-10-10T20:26:54.438Z,6.63
2022-10-10T20:30:56.027Z,5.43
2022-10-10T20:34:58.032Z,6.57
2022-10-10T20:39:02.288Z,7.78
2022-10-10T20:43:04.117Z,6.50
2022-10-10T20:47:06.931Z,6.00
2022-10-10T20:51:11.044Z,6.03
2022-10-10T20:55:12.736Z,6.05
2022-10-10T20:59:14.492Z,5.57
2022-10-10T21:03:16.079Z,5.32
2022-10-10T21:07:17.500Z,4.68
2022-10-10T21:11:19.347Z,4.45
2022-10-10T21:15:20.733Z,5.82
2022-10-10T21:19:22.409Z,5.03
2022-10-10T21:23:24.065Z,4.80
2022-10-10T21:27:28.481Z,5.88
2022-10-10T21:31:34.011Z,4.32
2022-10-10T21:35:35.830Z,4.82
2022-10-10T21:39:37.412Z,5.10
2022-10-10T21:43:40.431Z,4.45
2022-10-10T21:47:42.204Z,6.25
2022-10-10T21:51:47.500Z,5.35
2022-10-10T21:55:49.793Z,5.72
2022-10-10T21:59:51.376Z,4.43
2022-10-10T22:03:53.637Z,5.47
2022-10-10T22:07:55.053Z,5.63
2022-10-10T22:11:56.545Z,5.18
2022-10-10T22:15:58.582Z,4.72
2022-10-10T22:20:00.402Z,5.45
2022-10-10T22:24:05.074Z,5.40
2022-10-10T22:28:06.650Z,4.60
2022-10-10T22:32:08.280Z,4.45
2022-10-10T22:36:10.173Z,5.78
2022-10-10T22:40:12.879Z,4.90
2022-10-10T22:44:16.071Z,4.40
2022-10-10T22:48:17.497Z,4.88
2022-10-10T22:52:19.132Z,4.70
2022-10-10T22:56:21.271Z,5.57
2022-10-10T23:00:22.881Z,5.45
2022-10-10T23:04:24.420Z,4.88
2022-10-10T23:08:25.888Z,5.18
2022-10-10T23:12:27.358Z,4.07
2022-10-10T23:16:30.920Z,4.80
2022-10-10T23:20:35.086Z,5.15
2022-10-10T23:24:37.774Z,4.68
2022-10-10T23:28:39.545Z,4.80
2022-10-10T23:32:41.549Z,4.95
2022-10-10T23:36:42.987Z,4.55
2022-10-10T23:40:44.409Z,4.63
2022-10-10T23:44:46.066Z,4.35
2022-10-10T23:48:48.015Z,4.47
2022-10-10T23:52:49.406Z,5.53
2022-10-10T23:56:51.348Z,5.53
